sensor_id;sensor_type;location;lat;lon;timestamp;P1;durP1;ratioP1;P2;durP2;ratioP2
6693;SDS011;3384;42.628;23.380;2023-08-20T13:36:41;15.20;;;14.80;;
6693;SDS011;3384;42.628;23.380;2023-08-20T13:39:08;15.70;;;15.00;;
6693;SDS011;3384;42.628;23.380;2023-08-20T13:41:38;17.63;;;16.13;;
6693;SDS011;3384;42.628;23.380;2023-08-20T13:44:05;16.67;;;15.40;;
6693;SDS011;3384;42.628;23.380;2023-08-20T13:46:33;15.97;;;15.30;;
6693;SDS011;3384;42.628;23.380;2023-08-20T13:48:59;16.20;;;15.53;;
6693;SDS011;3384;42.628;23.380;2023-08-20T13:51:28;16.30;;;15.70;;
6693;SDS011;3384;42.628;23.380;2023-08-20T13:53:56;16.63;;;15.63;;
6693;SDS011;3384;42.628;23.380;2023-08-20T13:56:23;16.33;;;15.53;;
6693;SDS011;3384;42.628;23.380;2023-08-20T13:58:50;17.07;;;16.27;;
6693;SDS011;3384;42.628;23.380;2023-08-20T14:01:17;17.03;;;16.00;;
6693;SDS011;3384;42.628;23.380;2023-08-20T14:03:44;17.70;;;16.60;;
6693;SDS011;3384;42.628;23.380;2023-08-20T14:06:11;16.03;;;15.30;;
6693;SDS011;3384;42.628;23.380;2023-08-20T14:08:38;17.53;;;16.63;;
6693;SDS011;3384;42.628;23.380;2023-08-20T14:11:06;16.47;;;15.73;;
6693;SDS011;3384;42.628;23.380;2023-08-20T14:13:33;16.90;;;16.10;;
6693;SDS011;3384;42.628;23.380;2023-08-20T14:16:00;16.30;;;15.60;;
6693;SDS011;3384;42.628;23.380;2023-08-20T14:18:27;17.03;;;16.30;;
6693;SDS011;3384;42.628;23.380;2023-08-20T14:20:54;15.87;;;15.07;;
6693;SDS011;3384;42.628;23.380;2023-08-20T14:23:21;17.20;;;16.30;;
6693;SDS011;3384;42.628;23.380;2023-08-20T14:25:48;17.63;;;16.57;;
6693;SDS011;3384;42.628;23.380;2023-08-20T14:28:16;16.33;;;15.40;;
6693;SDS011;3384;42.628;23.380;2023-08-20T14:30:43;15.80;;;15.30;;
6693;SDS011;3384;42.628;23.380;2023-08-20T14:33:09;15.20;;;14.33;;
6693;SDS011;3384;42.628;23.380;2023-08-20T14:35:36;16.00;;;15.20;;
6693;SDS011;3384;42.628;23.380;2023-08-20T14:38:03;15.93;;;14.77;;
6693;SDS011;3384;42.628;23.380;2023-08-20T14:40:30;16.10;;;15.53;;
6693;SDS011;3384;42.628;23.380;2023-08-20T14:42:59;16.30;;;15.43;;
6693;SDS011;3384;42.628;23.380;2023-08-20T14:45:27;15.63;;;14.93;;
6693;SDS011;3384;42.628;23.380;2023-08-20T14:47:54;16.60;;;15.90;;
6693;SDS011;3384;42.628;23.380;2023-08-20T14:50:21;17.10;;;16.20;;
6693;SDS011;3384;42.628;23.380;2023-08-20T14:52:48;15.80;;;15.20;;
6693;SDS011;3384;42.628;23.380;2023-08-20T14:55:17;15.83;;;15.33;;
6693;SDS011;3384;42.628;23.380;2023-08-20T14:57:44;16.77;;;15.53;;
6693;SDS011;3384;42.628;23.380;2023-08-20T15:00:11;15.33;;;14.63;;
6693;SDS011;3384;42.628;23.380;2023-08-20T15:02:41;15.27;;;14.73;;
6693;SDS011;3384;42.628;23.380;2023-08-20T15:05:08;15.63;;;15.13;;
6693;SDS011;3384;42.628;23.380;2023-08-20T15:07:36;14.77;;;14.37;;
6693;SDS011;3384;42.628;23.380;2023-08-20T15:10:03;16.33;;;15.50;;
6693;SDS011;3384;42.628;23.380;2023-08-20T15:12:31;15.60;;;14.97;;
6693;SDS011;3384;42.628;23.380;2023-08-20T15:14:59;15.77;;;15.27;;
6693;SDS011;3384;42.628;23.380;2023-08-20T15:17:26;16.50;;;15.70;;
6693;SDS011;3384;42.628;23.380;2023-08-20T15:19:55;15.73;;;15.10;;
6693;SDS011;3384;42.628;23.380;2023-08-20T15:22:22;16.50;;;15.90;;
6693;SDS011;3384;42.628;23.380;2023-08-20T15:24:49;16.23;;;15.60;;
6693;SDS011;3384;42.628;23.380;2023-08-20T15:27:16;16.00;;;15.30;;
6693;SDS011;3384;42.628;23.380;2023-08-20T15:29:43;16.20;;;15.70;;
6693;SDS011;3384;42.628;23.380;2023-08-20T15:32:10;16.50;;;15.43;;
6693;SDS011;3384;42.628;23.380;2023-08-20T15:34:37;16.37;;;15.53;;
6693;SDS011;3384;42.628;23.380;2023-08-20T15:37:05;15.97;;;15.20;;
6693;SDS011;3384;42.628;23.380;2023-08-20T15:39:32;19.60;;;18.53;;
6693;SDS011;3384;42.628;23.380;2023-08-20T15:42:00;14.60;;;13.80;;
6693;SDS011;3384;42.628;23.380;2023-08-20T15:44:26;15.20;;;14.80;;
6693;SDS011;3384;42.628;23.380;2023-08-20T15:46:53;15.97;;;15.00;;
6693;SDS011;3384;42.628;23.380;2023-08-20T15:49:20;16.40;;;14.90;;
6693;SDS011;3384;42.628;23.380;2023-08-20T15:51:47;15.80;;;15.13;;
6693;SDS011;3384;42.628;23.380;2023-08-20T15:54:16;15.40;;;14.50;;
6693;SDS011;3384;42.628;23.380;2023-08-20T15:56:44;15.20;;;14.40;;
6693;SDS011;3384;42.628;23.380;2023-08-20T15:59:11;15.90;;;14.80;;
6693;SDS011;3384;42.628;23.380;2023-08-20T16:01:38;15.07;;;14.57;;
6693;SDS011;3384;42.628;23.380;2023-08-20T16:04:06;15.27;;;14.87;;
6693;SDS011;3384;42.628;23.380;2023-08-20T16:06:33;16.63;;;15.80;;
6693;SDS011;3384;42.628;23.380;2023-08-20T16:09:00;16.40;;;15.57;;
6693;SDS011;3384;42.628;23.380;2023-08-20T16:11:30;16.23;;;15.30;;
6693;SDS011;3384;42.628;23.380;2023-08-20T16:13:57;16.70;;;16.10;;
6693;SDS011;3384;42.628;23.380;2023-08-20T16:16:24;17.40;;;15.60;;
6693;SDS011;3384;42.628;23.380;2023-08-20T16:18:56;16.70;;;15.67;;
6693;SDS011;3384;42.628;23.380;2023-08-20T16:21:23;16.17;;;15.23;;
6693;SDS011;3384;42.628;23.380;2023-08-20T16:23:50;16.20;;;15.30;;
6693;SDS011;3384;42.628;23.380;2023-08-20T16:26:17;17.97;;;17.07;;
6693;SDS011;3384;42.628;23.380;2023-08-20T16:28:46;16.50;;;15.80;;
6693;SDS011;3384;42.628;23.380;2023-08-20T16:31:13;17.43;;;16.77;;
6693;SDS011;3384;42.628;23.380;2023-08-20T16:33:40;17.80;;;16.23;;
6693;SDS011;3384;42.628;23.380;2023-08-20T16:36:07;16.37;;;15.80;;
6693;SDS011;3384;42.628;23.380;2023-08-20T16:38:33;17.27;;;16.40;;
6693;SDS011;3384;42.628;23.380;2023-08-20T16:41:00;16.20;;;15.60;;
6693;SDS011;3384;42.628;23.380;2023-08-20T16:43:30;16.40;;;15.20;;
6693;SDS011;3384;42.628;23.380;2023-08-20T16:45:58;16.10;;;15.57;;
6693;SDS011;3384;42.628;23.380;2023-08-20T16:48:26;16.40;;;15.50;;
6693;SDS011;3384;42.628;23.380;2023-08-20T16:50:55;16.53;;;15.63;;
6693;SDS011;3384;42.628;23.380;2023-08-20T16:53:22;16.13;;;15.33;;
6693;SDS011;3384;42.628;23.380;2023-08-20T16:55:50;18.93;;;17.40;;
6693;SDS011;3384;42.628;23.380;2023-08-20T16:58:18;17.60;;;16.20;;
6693;SDS011;3384;42.628;23.380;2023-08-20T17:00:45;17.47;;;16.33;;
6693;SDS011;3384;42.628;23.380;2023-08-20T17:03:13;17.13;;;16.37;;
6693;SDS011;3384;42.628;23.380;2023-08-20T17:05:40;16.00;;;15.40;;
6693;SDS011;3384;42.628;23.380;2023-08-20T17:08:07;17.27;;;16.47;;
6693;SDS011;3384;42.628;23.380;2023-08-20T17:10:34;16.40;;;15.80;;
6693;SDS011;3384;42.628;23.380;2023-08-20T17:13:01;16.97;;;16.13;;
6693;SDS011;3384;42.628;23.380;2023-08-20T17:15:28;18.10;;;16.70;;
6693;SDS011;3384;42.628;23.380;2023-08-20T17:17:55;18.13;;;17.10;;
6693;SDS011;3384;42.628;23.380;2023-08-20T17:20:23;17.13;;;15.97;;
6693;SDS011;3384;42.628;23.380;2023-08-20T17:22:50;18.03;;;17.00;;
6693;SDS011;3384;42.628;23.380;2023-08-20T17:25:17;17.53;;;16.07;;
6693;SDS011;3384;42.628;23.380;2023-08-20T17:27:45;16.90;;;15.80;;
6693;SDS011;3384;42.628;23.380;2023-08-20T17:30:12;17.37;;;16.43;;
6693;SDS011;3384;42.628;23.380;2023-08-20T17:32:40;17.80;;;16.83;;
6693;SDS011;3384;42.628;23.380;2023-08-20T17:35:07;18.40;;;17.23;;
6693;SDS011;3384;42.628;23.380;2023-08-20T17:37:36;20.40;;;18.57;;
6693;SDS011;3384;42.628;23.380;2023-08-20T17:40:03;17.73;;;16.73;;
6693;SDS011;3384;42.628;23.380;2023-08-20T17:42:34;20.27;;;19.00;;
6693;SDS011;3384;42.628;23.380;2023-08-20T17:45:01;20.13;;;18.73;;
6693;SDS011;3384;42.628;23.380;2023-08-20T17:47:27;17.37;;;16.27;;
6693;SDS011;3384;42.628;23.380;2023-08-20T17:49:54;17.77;;;16.87;;
6693;SDS011;3384;42.628;23.380;2023-08-20T17:52:21;17.33;;;16.10;;
6693;SDS011;3384;42.628;23.380;2023-08-20T17:54:49;16.70;;;15.83;;
6693;SDS011;3384;42.628;23.380;2023-08-20T17:57:16;23.40;;;16.70;;
6693;SDS011;3384;42.628;23.380;2023-08-20T17:59:43;16.93;;;15.70;;
6693;SDS011;3384;42.628;23.380;2023-08-20T18:02:10;19.50;;;18.47;;
6693;SDS011;3384;42.628;23.380;2023-08-20T18:04:37;19.60;;;18.20;;
6693;SDS011;3384;42.628;23.380;2023-08-20T18:07:04;19.37;;;18.17;;
6693;SDS011;3384;42.628;23.380;2023-08-20T18:09:32;17.13;;;16.13;;
6693;SDS011;3384;42.628;23.380;2023-08-20T18:12:01;24.67;;;18.60;;
6693;SDS011;3384;42.628;23.380;2023-08-20T18:14:28;24.13;;;20.70;;
6693;SDS011;3384;42.628;23.380;2023-08-20T18:16:55;18.70;;;17.80;;
6693;SDS011;3384;42.628;23.380;2023-08-20T18:19:22;18.17;;;16.73;;
6693;SDS011;3384;42.628;23.380;2023-08-20T18:21:49;17.80;;;16.80;;
6693;SDS011;3384;42.628;23.380;2023-08-20T18:24:16;19.00;;;18.00;;
6693;SDS011;3384;42.628;23.380;2023-08-20T18:26:42;22.80;;;20.57;;
6693;SDS011;3384;42.628;23.380;2023-08-20T18:29:11;18.90;;;17.70;;
6693;SDS011;3384;42.628;23.380;2023-08-20T18:31:38;18.53;;;17.13;;
6693;SDS011;3384;42.628;23.380;2023-08-20T18:34:05;20.77;;;18.43;;
6693;SDS011;3384;42.628;23.380;2023-08-20T18:36:33;18.53;;;16.93;;
6693;SDS011;3384;42.628;23.380;2023-08-20T18:39:02;19.93;;;18.17;;
6693;SDS011;3384;42.628;23.380;2023-08-20T18:41:34;18.83;;;17.50;;
6693;SDS011;3384;42.628;23.380;2023-08-20T18:44:06;17.90;;;16.80;;
6693;SDS011;3384;42.628;23.380;2023-08-20T18:46:39;16.93;;;16.03;;
6693;SDS011;3384;42.628;23.380;2023-08-20T18:49:08;18.90;;;17.43;;
6693;SDS011;3384;42.628;23.380;2023-08-20T18:51:35;17.43;;;16.50;;
6693;SDS011;3384;42.628;23.380;2023-08-20T18:54:32;26.17;;;19.27;;
6693;SDS011;3384;42.628;23.380;2023-08-20T18:56:51;18.77;;;17.77;;
6693;SDS011;3384;42.628;23.380;2023-08-20T18:59:18;19.07;;;17.87;;
6693;SDS011;3384;42.628;23.380;2023-08-20T19:01:48;19.50;;;18.20;;
6693;SDS011;3384;42.628;23.380;2023-08-20T19:04:17;17.00;;;16.07;;
6693;SDS011;3384;42.628;23.380;2023-08-20T19:06:44;23.03;;;18.00;;
6693;SDS011;3384;42.628;23.380;2023-08-20T19:09:11;18.47;;;16.90;;
6693;SDS011;3384;42.628;23.380;2023-08-20T19:11:41;20.30;;;19.20;;
6693;SDS011;3384;42.628;23.380;2023-08-20T19:14:08;17.43;;;16.10;;
6693;SDS011;3384;42.628;23.380;2023-08-20T19:16:35;18.77;;;16.90;;
6693;SDS011;3384;42.628;23.380;2023-08-20T19:19:03;18.07;;;16.97;;
6693;SDS011;3384;42.628;23.380;2023-08-20T19:21:32;18.43;;;16.73;;
6693;SDS011;3384;42.628;23.380;2023-08-20T19:24:01;18.23;;;17.00;;
6693;SDS011;3384;42.628;23.380;2023-08-20T19:26:30;20.70;;;18.10;;
6693;SDS011;3384;42.628;23.380;2023-08-20T19:28:57;17.90;;;17.00;;
6693;SDS011;3384;42.628;23.380;2023-08-20T19:31:25;20.87;;;19.27;;
6693;SDS011;3384;42.628;23.380;2023-08-20T19:33:52;19.20;;;17.40;;
6693;SDS011;3384;42.628;23.380;2023-08-20T19:36:21;17.83;;;17.00;;
6693;SDS011;3384;42.628;23.380;2023-08-20T19:38:48;18.13;;;16.90;;
6693;SDS011;3384;42.628;23.380;2023-08-20T19:41:15;18.00;;;16.80;;
6693;SDS011;3384;42.628;23.380;2023-08-20T19:43:42;18.60;;;17.00;;
6693;SDS011;3384;42.628;23.380;2023-08-20T19:46:09;18.50;;;17.50;;
6693;SDS011;3384;42.628;23.380;2023-08-20T19:48:38;19.03;;;17.53;;
6693;SDS011;3384;42.628;23.380;2023-08-20T19:51:05;18.87;;;17.77;;
6693;SDS011;3384;42.628;23.380;2023-08-20T19:53:33;18.80;;;17.60;;
6693;SDS011;3384;42.628;23.380;2023-08-20T19:56:00;20.37;;;18.83;;
6693;SDS011;3384;42.628;23.380;2023-08-20T19:58:28;21.83;;;20.10;;
6693;SDS011;3384;42.628;23.380;2023-08-20T20:00:55;19.20;;;18.03;;
6693;SDS011;3384;42.628;23.380;2023-08-20T20:03:21;21.33;;;19.70;;
6693;SDS011;3384;42.628;23.380;2023-08-20T20:05:49;20.00;;;18.60;;
6693;SDS011;3384;42.628;23.380;2023-08-20T20:08:21;21.70;;;19.90;;
6693;SDS011;3384;42.628;23.380;2023-08-20T20:10:55;19.87;;;18.70;;
6693;SDS011;3384;42.628;23.380;2023-08-20T20:13:31;20.17;;;18.63;;
6693;SDS011;3384;42.628;23.380;2023-08-20T20:16:03;16.77;;;16.03;;
6693;SDS011;3384;42.628;23.380;2023-08-20T20:18:46;18.90;;;17.43;;
6693;SDS011;3384;42.628;23.380;2023-08-20T20:21:15;18.97;;;17.93;;
6693;SDS011;3384;42.628;23.380;2023-08-20T20:23:52;17.77;;;16.97;;
6693;SDS011;3384;42.628;23.380;2023-08-20T20:26:25;19.23;;;18.33;;
6693;SDS011;3384;42.628;23.380;2023-08-20T20:28:52;20.33;;;19.13;;
6693;SDS011;3384;42.628;23.380;2023-08-20T20:31:21;18.17;;;17.40;;
6693;SDS011;3384;42.628;23.380;2023-08-20T20:33:48;19.20;;;17.70;;
6693;SDS011;3384;42.628;23.380;2023-08-20T20:36:15;22.73;;;21.40;;
6693;SDS011;3384;42.628;23.380;2023-08-20T20:38:42;26.87;;;24.67;;
6693;SDS011;3384;42.628;23.380;2023-08-20T20:41:08;19.37;;;18.33;;
6693;SDS011;3384;42.628;23.380;2023-08-20T20:43:37;18.63;;;17.63;;
6693;SDS011;3384;42.628;23.380;2023-08-20T20:46:04;19.80;;;18.10;;
6693;SDS011;3384;42.628;23.380;2023-08-20T20:48:30;19.40;;;18.50;;
6693;SDS011;3384;42.628;23.380;2023-08-20T20:50:57;21.07;;;18.90;;
6693;SDS011;3384;42.628;23.380;2023-08-20T20:53:24;19.10;;;18.10;;
6693;SDS011;3384;42.628;23.380;2023-08-20T20:55:51;20.00;;;17.93;;
6693;SDS011;3384;42.628;23.380;2023-08-20T20:58:17;24.53;;;17.63;;
6693;SDS011;3384;42.628;23.380;2023-08-20T21:00:46;19.10;;;17.83;;
6693;SDS011;3384;42.628;23.380;2023-08-20T21:03:12;17.30;;;16.53;;
6693;SDS011;3384;42.628;23.380;2023-08-20T21:05:42;18.63;;;17.53;;
6693;SDS011;3384;42.628;23.380;2023-08-20T21:08:09;17.70;;;16.60;;
6693;SDS011;3384;42.628;23.380;2023-08-20T21:10:36;18.93;;;17.70;;
6693;SDS011;3384;42.628;23.380;2023-08-20T21:13:03;17.50;;;16.70;;
6693;SDS011;3384;42.628;23.380;2023-08-20T21:15:32;19.40;;;18.10;;
6693;SDS011;3384;42.628;23.380;2023-08-20T21:18:00;17.90;;;17.10;;
6693;SDS011;3384;42.628;23.380;2023-08-20T21:20:27;17.73;;;17.03;;
6693;SDS011;3384;42.628;23.380;2023-08-20T21:22:56;19.23;;;17.90;;
6693;SDS011;3384;42.628;23.380;2023-08-20T21:25:23;19.43;;;18.23;;
6693;SDS011;3384;42.628;23.380;2023-08-20T21:27:49;17.93;;;17.03;;
6693;SDS011;3384;42.628;23.380;2023-08-20T21:30:16;18.53;;;17.73;;
6693;SDS011;3384;42.628;23.380;2023-08-20T21:32:43;18.47;;;17.40;;
6693;SDS011;3384;42.628;23.380;2023-08-20T21:35:11;18.80;;;17.53;;
6693;SDS011;3384;42.628;23.380;2023-08-20T21:37:38;19.80;;;18.50;;
6693;SDS011;3384;42.628;23.380;2023-08-20T21:40:06;19.93;;;18.33;;
6693;SDS011;3384;42.628;23.380;2023-08-20T21:42:33;22.83;;;21.00;;
6693;SDS011;3384;42.628;23.380;2023-08-20T21:45:00;26.03;;;24.23;;
6693;SDS011;3384;42.628;23.380;2023-08-20T21:47:27;21.30;;;20.00;;
6693;SDS011;3384;42.628;23.380;2023-08-20T21:49:54;23.87;;;21.73;;
6693;SDS011;3384;42.628;23.380;2023-08-20T21:52:22;18.40;;;17.03;;
6693;SDS011;3384;42.628;23.380;2023-08-20T21:54:49;17.83;;;16.93;;
6693;SDS011;3384;42.628;23.380;2023-08-20T21:57:17;18.30;;;17.00;;
6693;SDS011;3384;42.628;23.380;2023-08-20T21:59:45;17.80;;;16.30;;
6693;SDS011;3384;42.628;23.380;2023-08-20T22:02:12;18.37;;;17.27;;
6693;SDS011;3384;42.628;23.380;2023-08-20T22:04:39;19.23;;;17.83;;
6693;SDS011;3384;42.628;23.380;2023-08-20T22:07:06;18.63;;;17.40;;
6693;SDS011;3384;42.628;23.380;2023-08-20T22:09:35;18.60;;;17.70;;
6693;SDS011;3384;42.628;23.380;2023-08-20T22:12:02;21.43;;;20.13;;
6693;SDS011;3384;42.628;23.380;2023-08-20T22:14:29;18.80;;;17.57;;
6693;SDS011;3384;42.628;23.380;2023-08-20T22:16:56;18.63;;;17.63;;
6693;SDS011;3384;42.628;23.380;2023-08-20T22:19:23;18.73;;;17.30;;
6693;SDS011;3384;42.628;23.380;2023-08-20T22:21:50;18.63;;;17.57;;
6693;SDS011;3384;42.628;23.380;2023-08-20T22:24:17;19.53;;;18.43;;
6693;SDS011;3384;42.628;23.380;2023-08-20T22:26:46;19.33;;;17.77;;
6693;SDS011;3384;42.628;23.380;2023-08-20T22:29:15;18.53;;;17.53;;
6693;SDS011;3384;42.628;23.380;2023-08-20T22:31:44;19.60;;;18.40;;
6693;SDS011;3384;42.628;23.380;2023-08-20T22:34:11;17.67;;;17.07;;
6693;SDS011;3384;42.628;23.380;2023-08-20T22:36:38;18.93;;;17.70;;
6693;SDS011;3384;42.628;23.380;2023-08-20T22:39:05;18.33;;;17.33;;
6693;SDS011;3384;42.628;23.380;2023-08-20T22:41:32;18.37;;;17.43;;
6693;SDS011;3384;42.628;23.380;2023-08-20T22:44:00;17.70;;;16.90;;
6693;SDS011;3384;42.628;23.380;2023-08-20T22:46:28;20.97;;;18.27;;
6693;SDS011;3384;42.628;23.380;2023-08-20T22:48:55;18.43;;;17.57;;
6693;SDS011;3384;42.628;23.380;2023-08-20T22:51:22;18.53;;;17.00;;
6693;SDS011;3384;42.628;23.380;2023-08-20T22:53:48;17.97;;;16.97;;
6693;SDS011;3384;42.628;23.380;2023-08-20T22:56:15;17.43;;;16.63;;
6693;SDS011;3384;42.628;23.380;2023-08-20T22:58:42;18.10;;;17.27;;
6693;SDS011;3384;42.628;23.380;2023-08-20T23:01:11;17.70;;;16.80;;
6693;SDS011;3384;42.628;23.380;2023-08-20T23:03:38;18.73;;;17.60;;
6693;SDS011;3384;42.628;23.380;2023-08-20T23:06:04;19.40;;;17.73;;
6693;SDS011;3384;42.628;23.380;2023-08-20T23:08:32;18.23;;;17.10;;
6693;SDS011;3384;42.628;23.380;2023-08-20T23:10:58;19.33;;;18.03;;
6693;SDS011;3384;42.628;23.380;2023-08-20T23:13:28;18.47;;;17.50;;
6693;SDS011;3384;42.628;23.380;2023-08-20T23:15:55;18.03;;;17.13;;
6693;SDS011;3384;42.628;23.380;2023-08-20T23:18:23;18.93;;;17.50;;
6693;SDS011;3384;42.628;23.380;2023-08-20T23:20:52;18.27;;;16.93;;
6693;SDS011;3384;42.628;23.380;2023-08-20T23:23:20;17.90;;;16.90;;
6693;SDS011;3384;42.628;23.380;2023-08-20T23:25:47;18.43;;;16.47;;
6693;SDS011;3384;42.628;23.380;2023-08-20T23:28:14;18.80;;;17.30;;
6693;SDS011;3384;42.628;23.380;2023-08-20T23:30:41;17.00;;;16.30;;
6693;SDS011;3384;42.628;23.380;2023-08-20T23:33:08;17.60;;;16.53;;
6693;SDS011;3384;42.628;23.380;2023-08-20T23:35:37;18.80;;;17.60;;
6693;SDS011;3384;42.628;23.380;2023-08-20T23:38:05;17.97;;;16.73;;
6693;SDS011;3384;42.628;23.380;2023-08-20T23:40:32;17.57;;;16.77;;
6693;SDS011;3384;42.628;23.380;2023-08-20T23:42:59;18.97;;;17.67;;
6693;SDS011;3384;42.628;23.380;2023-08-20T23:45:26;17.67;;;16.77;;
6693;SDS011;3384;42.628;23.380;2023-08-20T23:47:53;19.63;;;17.87;;
6693;SDS011;3384;42.628;23.380;2023-08-20T23:50:19;19.33;;;17.90;;
6693;SDS011;3384;42.628;23.380;2023-08-20T23:52:48;23.27;;;18.17;;
6693;SDS011;3384;42.628;23.380;2023-08-20T23:55:15;19.13;;;18.20;;
6693;SDS011;3384;42.628;23.380;2023-08-20T23:57:42;19.40;;;18.47;;
